Terminal Aerodrome Forecast
Issued by NWS

Home | Current Version | Previous Version | Text Only | Print | Product List | Glossary On
Versions: 1 2 3 4 5 6 7 8 9 10 11 12 13 14 15
000
FTUS45 KSLC 260546 AAA
TAFOGD
TAF AMD
KOGD 260546Z 2606/2706 20012G22KT P6SM SCT090
     FM261200 29008KT P6SM VCSH SCT050 BKN080
     FM261800 29012G18KT P6SM VCSH SCT040 BKN070=

USA.gov is the U.S. government's official web portal to all federal, state and local government web resources and services.